createdAt,value
2023-05-05T00:02:27.582Z,9.00
2023-05-05T00:04:54.452Z,8.00
2023-05-05T00:07:21.201Z,16.85
2023-05-05T00:09:48.210Z,12.40
2023-05-05T00:12:14.940Z,11.43
2023-05-05T00:14:41.799Z,9.60
2023-05-05T00:17:08.679Z,13.20
2023-05-05T00:19:35.491Z,10.60
2023-05-05T00:22:02.254Z,11.13
2023-05-05T00:24:29.037Z,14.07
2023-05-05T00:26:55.993Z,10.73
2023-05-05T00:29:23.004Z,19.65
2023-05-05T00:31:52.973Z,10.37
2023-05-05T00:34:19.993Z,13.15
2023-05-05T00:36:46.854Z,14.27
2023-05-05T00:39:14.174Z,7.97
2023-05-05T00:41:41.054Z,10.63
2023-05-05T00:44:07.945Z,14.80
2023-05-05T00:46:35.595Z,7.93
2023-05-05T00:49:02.710Z,12.27
2023-05-05T00:51:29.882Z,11.10
2023-05-05T00:53:56.946Z,6.63
2023-05-05T00:56:27.369Z,15.57
2023-05-05T00:58:54.340Z,8.50
2023-05-05T01:01:21.290Z,14.97
2023-05-05T01:03:48.184Z,8.93
2023-05-05T01:06:35.268Z,6.93
2023-05-05T01:09:11.636Z,10.82
2023-05-05T01:11:50.554Z,5.27
2023-05-05T01:14:21.118Z,13.73
2023-05-05T01:17:00.701Z,10.63
2023-05-05T01:19:36.568Z,18.13
2023-05-05T01:22:27.488Z,14.87
2023-05-05T01:25:32.051Z,11.27
2023-05-05T01:28:13.728Z,12.53
2023-05-05T01:30:46.554Z,9.83
2023-05-05T01:33:19.515Z,9.90
2023-05-05T01:35:55.133Z,10.93
2023-05-05T01:38:26.359Z,17.03
2023-05-05T01:41:03.425Z,9.07
2023-05-05T01:43:35.213Z,10.20
2023-05-05T01:46:03.614Z,10.53
2023-05-05T01:48:31.222Z,12.97
2023-05-05T01:51:03.623Z,11.37
2023-05-05T01:53:31.502Z,10.90
2023-05-05T01:56:18.082Z,8.10
2023-05-05T01:58:46.685Z,10.57
2023-05-05T02:01:15.814Z,11.77
2023-05-05T02:03:44.691Z,13.90
2023-05-05T02:06:14.621Z,12.00
2023-05-05T02:08:43.561Z,11.47
2023-05-05T02:11:11.713Z,7.90
2023-05-05T02:13:42.609Z,15.00
2023-05-05T02:16:16.395Z,14.77
2023-05-05T02:18:44.128Z,16.45
2023-05-05T02:21:10.933Z,15.10
2023-05-05T02:23:38.804Z,12.50
2023-05-05T02:26:09.487Z,13.33
2023-05-05T02:28:48.905Z,18.03
2023-05-05T02:31:20.519Z,13.43
2023-05-05T02:33:49.604Z,15.13
2023-05-05T02:36:23.462Z,14.07
2023-05-05T02:39:01.279Z,14.80
2023-05-05T02:41:36.275Z,25.97
2023-05-05T02:44:10.647Z,10.33
2023-05-05T02:47:15.652Z,14.30
2023-05-05T02:49:43.204Z,15.67
2023-05-05T02:52:10.303Z,6.60
2023-05-05T02:54:39.036Z,12.98
2023-05-05T02:57:18.485Z,13.95
2023-05-05T03:00:23.401Z,9.93
2023-05-05T03:03:05.999Z,13.43
2023-05-05T03:06:04.745Z,14.23
2023-05-05T03:12:04.394Z,15.10
2023-05-05T03:17:30.961Z,15.03
2023-05-05T03:20:00.529Z,15.63
2023-05-05T03:22:31.676Z,20.07
2023-05-05T03:24:58.614Z,18.47
2023-05-05T03:27:25.572Z,15.23
2023-05-05T03:29:52.822Z,17.45
2023-05-05T03:32:20.269Z,22.63
2023-05-05T03:34:47.392Z,18.67
2023-05-05T03:37:14.429Z,17.97
2023-05-05T03:39:42.379Z,24.13
2023-05-05T03:42:10.907Z,15.97
2023-05-05T03:44:37.829Z,24.40
2023-05-05T03:47:05.053Z,19.10
2023-05-05T03:49:34.383Z,21.57
2023-05-05T03:52:01.688Z,17.73
2023-05-05T03:54:29.151Z,20.17
2023-05-05T03:56:56.597Z,20.43
2023-05-05T03:59:23.441Z,22.83
2023-05-05T04:01:50.801Z,18.63
2023-05-05T04:04:17.642Z,12.63
2023-05-05T04:06:44.524Z,22.70
2023-05-05T04:09:13.894Z,18.80
2023-05-05T04:11:41.401Z,22.95
2023-05-05T04:14:09.481Z,18.10
2023-05-05T04:16:36.695Z,17.95
2023-05-05T04:19:04.075Z,30.90
2023-05-05T04:21:32.420Z,20.37
2023-05-05T04:23:59.403Z,23.00
2023-05-05T04:26:27.333Z,31.97
2023-05-05T04:28:54.141Z,28.97
2023-05-05T04:31:21.210Z,17.17
2023-05-05T04:33:48.030Z,34.37
2023-05-05T04:36:15.108Z,28.00
2023-05-05T04:38:41.900Z,17.53
2023-05-05T04:41:08.844Z,27.00
2023-05-05T04:43:37.855Z,33.37
2023-05-05T04:46:05.105Z,20.80
2023-05-05T04:48:34.454Z,24.77
2023-05-05T04:51:05.237Z,23.20
2023-05-05T04:53:32.848Z,24.70
2023-05-05T04:56:01.611Z,27.17
2023-05-05T04:58:28.904Z,23.97
2023-05-05T05:00:55.909Z,22.40
2023-05-05T05:03:23.227Z,31.67
2023-05-05T05:05:50.307Z,34.23
2023-05-05T05:08:17.641Z,24.80
2023-05-05T05:11:22.383Z,22.15
2023-05-05T05:13:49.697Z,25.35
2023-05-05T05:16:16.609Z,28.58
2023-05-05T05:18:43.448Z,35.53
2023-05-05T05:21:10.522Z,28.43
2023-05-05T05:23:37.411Z,32.23
2023-05-05T05:26:05.623Z,32.67
2023-05-05T05:28:33.076Z,18.10
2023-05-05T05:31:00.304Z,12.68
2023-05-05T05:33:28.031Z,37.90
2023-05-05T05:35:56.875Z,23.27
2023-05-05T05:38:24.086Z,23.38
2023-05-05T05:40:54.597Z,23.63
2023-05-05T05:43:22.819Z,30.17
2023-05-05T05:45:50.160Z,34.85
2023-05-05T05:48:17.240Z,20.75
2023-05-05T05:50:44.305Z,25.98
2023-05-05T05:55:55.711Z,26.70
2023-05-05T05:58:22.504Z,26.67
2023-05-05T06:00:49.729Z,27.25
2023-05-05T06:03:17.073Z,23.48
2023-05-05T06:05:46.212Z,25.25
2023-05-05T06:08:14.089Z,30.08
2023-05-05T06:10:47.311Z,20.70
2023-05-05T06:13:17.321Z,30.85
2023-05-05T06:15:47.314Z,30.55
2023-05-05T06:21:00.250Z,30.48
2023-05-05T06:23:28.532Z,27.20
2023-05-05T06:26:00.270Z,31.73
2023-05-05T06:28:27.068Z,48.05
2023-05-05T06:30:53.813Z,27.30
2023-05-05T06:33:20.717Z,26.13
2023-05-05T06:35:49.482Z,33.25
2023-05-05T06:38:34.913Z,35.75
2023-05-05T06:41:01.822Z,29.88
2023-05-05T06:43:29.431Z,32.97
2023-05-05T06:45:59.682Z,20.60
2023-05-05T06:48:26.475Z,38.53
2023-05-05T06:50:53.323Z,23.23
2023-05-05T06:53:20.173Z,30.90
2023-05-05T06:55:47.813Z,23.60
2023-05-05T06:58:14.772Z,30.60
2023-05-05T07:00:42.357Z,26.67
2023-05-05T07:03:09.426Z,28.23
2023-05-05T07:05:36.874Z,28.08
2023-05-05T07:08:03.777Z,30.85
2023-05-05T07:10:31.880Z,30.67
2023-05-05T07:12:58.852Z,28.65
2023-05-05T07:15:29.122Z,26.98
2023-05-05T07:17:57.000Z,22.90
2023-05-05T07:20:24.344Z,32.92
2023-05-05T07:22:51.422Z,28.35
2023-05-05T07:25:18.277Z,26.50
2023-05-05T07:27:45.425Z,31.83
2023-05-05T07:30:16.333Z,24.45
2023-05-05T07:32:45.150Z,26.23
2023-05-05T07:35:12.104Z,32.35
2023-05-05T07:37:38.939Z,35.10
2023-05-05T07:40:06.565Z,25.83
2023-05-05T07:42:33.468Z,36.47
2023-05-05T07:45:00.821Z,26.63
2023-05-05T07:47:27.653Z,24.13
2023-05-05T07:49:54.528Z,23.92
2023-05-05T07:52:30.116Z,26.33
2023-05-05T07:55:04.948Z,20.73
2023-05-05T07:57:31.824Z,20.15
2023-05-05T07:59:58.605Z,23.08
2023-05-05T08:02:25.728Z,27.35
2023-05-05T08:04:52.633Z,30.98
2023-05-05T08:07:37.914Z,26.98
2023-05-05T08:10:05.535Z,20.65
2023-05-05T08:12:32.350Z,25.55
2023-05-05T08:15:00.515Z,21.88
2023-05-05T08:17:27.354Z,21.85
2023-05-05T08:19:54.120Z,27.33
2023-05-05T08:22:24.040Z,29.95
2023-05-05T08:24:50.799Z,21.52
2023-05-05T08:27:17.742Z,24.65
2023-05-05T08:29:44.517Z,28.35
2023-05-05T08:32:11.484Z,27.17
2023-05-05T08:34:38.357Z,21.73
2023-05-05T08:37:05.140Z,22.92
2023-05-05T08:39:32.016Z,27.65
2023-05-05T08:41:58.942Z,27.05
2023-05-05T08:44:27.104Z,25.58
2023-05-05T08:46:54.976Z,20.27
2023-05-05T08:49:22.826Z,22.42
2023-05-05T08:51:52.316Z,26.52
2023-05-05T08:54:20.427Z,30.95
2023-05-05T08:56:51.548Z,33.53
2023-05-05T08:59:19.230Z,34.28
2023-05-05T09:01:47.080Z,22.52
2023-05-05T09:04:14.404Z,25.33
2023-05-05T09:06:41.368Z,29.95
2023-05-05T09:09:09.124Z,22.90
2023-05-05T09:11:37.561Z,33.38
2023-05-05T09:14:04.407Z,25.42
2023-05-05T09:16:31.300Z,26.70
2023-05-05T09:19:04.683Z,23.38
2023-05-05T09:21:32.217Z,31.50
2023-05-05T09:24:11.893Z,34.13
2023-05-05T09:26:46.893Z,26.60
2023-05-05T09:29:21.333Z,21.90
2023-05-05T09:32:08.695Z,31.52
2023-05-05T09:34:57.196Z,36.85
2023-05-05T09:37:30.947Z,29.52
2023-05-05T09:40:01.172Z,19.45
2023-05-05T09:42:28.199Z,23.60
2023-05-05T09:44:56.057Z,28.15
2023-05-05T09:47:37.197Z,33.17
2023-05-05T09:50:04.442Z,23.83
2023-05-05T09:52:32.103Z,39.50
2023-05-05T09:54:59.006Z,43.25
2023-05-05T09:57:33.991Z,34.28
2023-05-05T10:00:19.749Z,20.50
2023-05-05T10:02:46.742Z,30.13
2023-05-05T10:05:17.909Z,25.25
2023-05-05T10:07:46.913Z,28.60
2023-05-05T10:10:16.264Z,29.88
2023-05-05T10:12:43.601Z,30.98
2023-05-05T10:15:12.095Z,31.42
2023-05-05T10:18:02.455Z,34.85
2023-05-05T10:20:33.577Z,26.67
2023-05-05T10:23:05.726Z,30.05
2023-05-05T10:25:46.673Z,29.45
2023-05-05T10:28:20.213Z,23.60
2023-05-05T10:31:24.467Z,40.08
2023-05-05T10:34:38.080Z,25.67
2023-05-05T10:37:07.046Z,30.75
2023-05-05T10:39:36.691Z,28.15
2023-05-05T10:42:03.732Z,29.80
2023-05-05T10:44:32.764Z,30.30
2023-05-05T10:47:00.461Z,26.00
2023-05-05T10:49:49.119Z,33.55
2023-05-05T10:52:16.805Z,27.63
2023-05-05T10:54:47.502Z,26.98
2023-05-05T10:57:16.685Z,42.83
2023-05-05T10:59:43.959Z,25.13
2023-05-05T11:02:20.269Z,38.08
2023-05-05T11:05:05.815Z,34.75
2023-05-05T11:07:34.500Z,30.08
2023-05-05T11:10:03.610Z,33.75
2023-05-05T11:12:31.805Z,36.58
2023-05-05T11:15:26.697Z,33.33
2023-05-05T11:17:58.361Z,43.45
2023-05-05T11:20:40.449Z,30.80
2023-05-05T11:23:07.545Z,37.45
2023-05-05T11:25:38.288Z,30.70
2023-05-05T11:28:19.320Z,39.33
2023-05-05T11:30:55.199Z,21.88
2023-05-05T11:33:39.091Z,41.00
2023-05-05T11:36:07.466Z,41.42
2023-05-05T11:38:52.929Z,41.22
2023-05-05T11:41:32.071Z,41.60
2023-05-05T11:44:29.385Z,26.60
2023-05-05T11:47:02.653Z,40.40
2023-05-05T11:49:31.817Z,29.30
2023-05-05T11:52:04.383Z,33.90
2023-05-05T11:54:32.085Z,37.47
2023-05-05T11:57:05.436Z,32.75
2023-05-05T11:59:33.560Z,36.50
2023-05-05T12:02:00.698Z,36.25
2023-05-05T12:04:27.640Z,43.90
2023-05-05T12:06:55.465Z,38.10
2023-05-05T12:09:23.885Z,31.17
2023-05-05T12:11:56.434Z,40.90
2023-05-05T12:14:24.809Z,37.80
2023-05-05T12:16:56.134Z,34.38
2023-05-05T12:19:23.478Z,33.72
2023-05-05T12:21:50.442Z,38.80
2023-05-05T12:24:17.239Z,46.03
2023-05-05T12:26:43.979Z,38.50
2023-05-05T12:29:11.019Z,31.25
2023-05-05T12:31:42.498Z,38.95
2023-05-05T12:34:11.202Z,30.23
2023-05-05T12:36:39.354Z,31.58
2023-05-05T12:39:06.422Z,40.28
2023-05-05T12:41:34.103Z,29.35
2023-05-05T12:44:03.332Z,38.25
2023-05-05T12:46:31.256Z,23.33
2023-05-05T12:49:04.639Z,35.55
2023-05-05T12:51:36.111Z,24.90
2023-05-05T12:54:11.457Z,42.95
2023-05-05T12:56:43.685Z,22.73
2023-05-05T12:59:22.767Z,20.58
2023-05-05T13:01:50.799Z,22.08
2023-05-05T13:04:18.878Z,19.33
2023-05-05T13:06:47.392Z,20.33
2023-05-05T13:09:24.912Z,21.58
2023-05-05T13:11:52.788Z,18.05
2023-05-05T13:14:19.686Z,37.13
2023-05-05T13:16:46.550Z,26.58
2023-05-05T13:19:13.482Z,24.92
2023-05-05T13:21:40.316Z,32.08
2023-05-05T13:24:19.122Z,36.55
2023-05-05T13:26:53.387Z,38.95
2023-05-05T13:29:20.245Z,35.85
2023-05-05T13:31:47.345Z,41.90
2023-05-05T13:34:14.458Z,28.55
2023-05-05T13:36:41.274Z,31.92
2023-05-05T13:39:08.906Z,23.85
2023-05-05T13:41:35.733Z,36.92
2023-05-05T13:44:02.829Z,31.23
2023-05-05T13:46:29.847Z,29.67
2023-05-05T13:48:56.979Z,22.98
2023-05-05T13:51:23.961Z,26.30
2023-05-05T13:53:50.929Z,40.67
2023-05-05T13:56:19.208Z,23.05
2023-05-05T13:58:46.450Z,25.67
2023-05-05T14:01:13.605Z,42.97
2023-05-05T14:03:40.557Z,28.92
2023-05-05T14:06:09.105Z,47.42
2023-05-05T14:08:35.878Z,39.13
2023-05-05T14:11:03.305Z,37.70
2023-05-05T14:13:30.086Z,39.60
2023-05-05T14:15:58.400Z,52.47
2023-05-05T14:18:25.761Z,39.85
2023-05-05T14:20:52.604Z,43.67
2023-05-05T14:23:19.428Z,45.83
2023-05-05T14:25:46.305Z,37.22
2023-05-05T14:28:13.230Z,39.00
2023-05-05T14:30:59.043Z,38.53
2023-05-05T14:33:25.971Z,42.80
2023-05-05T14:35:52.832Z,44.35
2023-05-05T14:38:19.739Z,39.92
2023-05-05T14:40:46.646Z,58.85
2023-05-05T14:43:13.528Z,44.10
2023-05-05T14:45:40.414Z,52.67
2023-05-05T14:48:07.404Z,52.38
2023-05-05T14:50:34.216Z,35.78
2023-05-05T14:53:01.126Z,34.05
2023-05-05T14:55:27.928Z,38.97
2023-05-05T14:57:54.786Z,39.97
2023-05-05T15:00:21.733Z,45.92
2023-05-05T15:02:48.633Z,29.77
2023-05-05T15:05:15.622Z,46.58
2023-05-05T15:07:42.426Z,43.30
2023-05-05T15:10:09.664Z,28.23
2023-05-05T15:12:36.676Z,48.53
2023-05-05T15:15:03.872Z,40.30
2023-05-05T15:20:15.964Z,39.25
2023-05-05T15:22:42.785Z,33.50
2023-05-05T15:25:12.434Z,25.00
2023-05-05T15:27:39.790Z,38.10
2023-05-05T15:30:07.322Z,41.85
2023-05-05T15:32:34.550Z,50.35
2023-05-05T15:35:01.433Z,29.67
2023-05-05T15:37:29.026Z,37.75
2023-05-05T15:39:56.105Z,39.45
2023-05-05T15:42:22.974Z,32.25
2023-05-05T15:44:50.065Z,42.70
2023-05-05T15:47:17.480Z,34.75
2023-05-05T15:49:44.485Z,45.72
2023-05-05T15:52:11.750Z,42.75
2023-05-05T15:54:38.481Z,33.70
2023-05-05T15:57:05.230Z,38.15
2023-05-05T15:59:32.853Z,30.42
2023-05-05T16:01:59.630Z,41.63
2023-05-05T16:04:26.512Z,34.65
2023-05-05T16:06:53.714Z,44.30
2023-05-05T16:09:20.505Z,51.15
2023-05-05T16:11:47.700Z,55.22
2023-05-05T16:14:14.723Z,33.30
2023-05-05T16:16:41.541Z,34.60
2023-05-05T16:19:28.390Z,42.85
2023-05-05T16:21:55.323Z,47.43
2023-05-05T16:24:22.192Z,37.53
2023-05-05T16:26:48.960Z,40.27
2023-05-05T16:29:16.598Z,49.60
2023-05-05T16:31:43.453Z,47.47
2023-05-05T16:34:29.153Z,44.13
2023-05-05T16:36:56.102Z,38.53
2023-05-05T16:39:22.987Z,56.70
2023-05-05T16:41:49.734Z,24.95
2023-05-05T16:44:16.527Z,40.65
2023-05-05T16:46:43.357Z,45.50
2023-05-05T16:49:10.134Z,38.20
2023-05-05T16:51:37.094Z,40.20
2023-05-05T16:54:04.075Z,45.58
2023-05-05T16:56:30.845Z,34.00
2023-05-05T16:58:57.730Z,43.40
2023-05-05T17:01:24.560Z,39.30
2023-05-05T17:03:51.443Z,32.72
2023-05-05T17:06:18.217Z,45.30
2023-05-05T17:08:45.061Z,41.95
2023-05-05T17:11:12.032Z,34.72
2023-05-05T17:16:22.869Z,52.90
2023-05-05T17:18:49.756Z,40.83
2023-05-05T17:21:16.639Z,28.40
2023-05-05T17:23:43.367Z,40.55
2023-05-05T17:26:10.118Z,39.92
2023-05-05T17:28:36.938Z,31.65
2023-05-05T17:31:03.779Z,31.73
2023-05-05T17:33:30.654Z,37.65
2023-05-05T17:36:16.058Z,35.58
2023-05-05T17:38:42.825Z,40.03
2023-05-05T17:41:09.610Z,40.92
2023-05-05T17:43:36.452Z,32.72
2023-05-05T17:46:03.305Z,31.75
2023-05-05T17:49:07.993Z,38.97
2023-05-05T17:51:34.941Z,36.10
2023-05-05T17:54:01.702Z,36.58
2023-05-05T17:56:28.522Z,37.90
2023-05-05T17:59:14.138Z,27.23
2023-05-05T18:01:40.989Z,28.08
2023-05-05T18:04:07.774Z,29.20
2023-05-05T18:06:34.624Z,46.80
2023-05-05T18:09:01.381Z,36.80
2023-05-05T18:11:30.999Z,29.67
2023-05-05T18:16:47.699Z,28.75
2023-05-05T18:19:32.949Z,20.42
2023-05-05T18:21:59.880Z,38.47
2023-05-05T18:24:27.601Z,26.25
2023-05-05T18:26:54.407Z,28.58
2023-05-05T18:29:21.926Z,22.45
2023-05-05T18:31:51.976Z,36.35
2023-05-05T18:34:20.563Z,25.73
2023-05-05T18:36:48.091Z,31.90
2023-05-05T18:39:15.305Z,49.95
2023-05-05T18:41:42.246Z,14.38
2023-05-05T18:44:27.889Z,27.15
2023-05-05T18:46:54.860Z,43.63
2023-05-05T18:49:22.102Z,25.13
2023-05-05T18:51:48.880Z,32.58
2023-05-05T18:54:15.647Z,33.55
2023-05-05T18:56:42.456Z,28.90
2023-05-05T18:59:09.414Z,34.58
2023-05-05T19:01:36.296Z,61.92
2023-05-05T19:04:03.207Z,30.77
2023-05-05T19:06:30.094Z,28.27
2023-05-05T19:08:57.006Z,79.22
2023-05-05T19:11:24.536Z,36.30
2023-05-05T19:13:51.436Z,26.35
2023-05-05T19:16:18.417Z,22.33
2023-05-05T19:18:45.422Z,39.75
2023-05-05T19:21:12.195Z,22.05
2023-05-05T19:23:39.149Z,37.47
2023-05-05T19:26:06.063Z,35.83
2023-05-05T19:28:33.435Z,33.97
2023-05-05T19:31:00.351Z,41.30
2023-05-05T19:33:45.741Z,44.85
2023-05-05T19:36:32.198Z,31.27
2023-05-05T19:39:03.904Z,23.73
2023-05-05T19:41:31.328Z,46.33
2023-05-05T19:43:58.166Z,27.85
2023-05-05T19:46:27.981Z,36.80
2023-05-05T19:48:54.952Z,29.17
2023-05-05T19:51:21.988Z,39.72
2023-05-05T19:53:48.814Z,37.10
2023-05-05T19:56:34.119Z,36.33
2023-05-05T19:59:02.534Z,51.10
2023-05-05T20:01:29.701Z,32.03
2023-05-05T20:04:15.184Z,48.97
2023-05-05T20:06:41.987Z,40.25
2023-05-05T20:09:08.866Z,43.65
2023-05-05T20:11:35.859Z,34.10
2023-05-05T20:14:02.664Z,32.08
2023-05-05T20:16:29.648Z,23.50
2023-05-05T20:18:56.561Z,57.20
2023-05-05T20:21:23.371Z,39.30
2023-05-05T20:23:50.349Z,50.67
2023-05-05T20:26:17.190Z,18.73
2023-05-05T20:28:45.770Z,30.73
2023-05-05T20:31:14.606Z,45.70
2023-05-05T20:33:41.422Z,52.08
2023-05-05T20:36:08.374Z,44.13
2023-05-05T20:38:35.131Z,62.80
2023-05-05T20:41:02.226Z,66.00
2023-05-05T20:43:29.131Z,71.20
2023-05-05T20:45:56.674Z,48.22
2023-05-05T20:48:43.210Z,23.60
2023-05-05T20:51:10.223Z,80.13
2023-05-05T20:53:37.062Z,56.58
2023-05-05T20:56:05.754Z,75.10
2023-05-05T20:58:33.264Z,43.65
2023-05-05T21:00:59.996Z,86.55
2023-05-05T21:03:27.040Z,37.22
2023-05-05T21:05:54.331Z,73.13
2023-05-05T21:08:21.343Z,42.55
2023-05-05T21:13:32.162Z,56.63
2023-05-05T21:15:58.965Z,92.82
2023-05-05T21:18:27.649Z,53.80
2023-05-05T21:21:32.251Z,90.18
2023-05-05T21:23:59.104Z,24.65
2023-05-05T21:26:25.911Z,100.70
2023-05-05T21:28:52.853Z,37.90
2023-05-05T21:31:22.246Z,125.80
2023-05-05T21:33:49.634Z,72.00
2023-05-05T21:36:17.682Z,54.35
2023-05-05T21:38:44.768Z,63.55
2023-05-05T21:41:30.813Z,64.22
2023-05-05T21:43:58.404Z,37.35
2023-05-05T21:46:25.601Z,55.08
2023-05-05T21:48:52.475Z,43.05
2023-05-05T21:51:19.971Z,65.53
2023-05-05T21:53:46.842Z,47.55
2023-05-05T21:56:13.700Z,44.95
2023-05-05T22:01:25.565Z,86.63
2023-05-05T22:03:52.721Z,123.53
2023-05-05T22:06:20.629Z,54.08
2023-05-05T22:08:48.299Z,50.47
2023-05-05T22:11:15.388Z,73.75
2023-05-05T22:13:42.165Z,74.53
2023-05-05T22:16:09.793Z,88.05
2023-05-05T22:18:37.049Z,109.43
2023-05-05T22:21:04.164Z,47.53
2023-05-05T22:23:31.115Z,69.97
2023-05-05T22:25:57.977Z,129.80
2023-05-05T22:28:24.819Z,75.53
2023-05-05T22:31:10.368Z,96.97
2023-05-05T22:33:37.367Z,64.03
2023-05-05T22:36:04.311Z,82.95
2023-05-05T22:38:31.105Z,66.68
2023-05-05T22:40:57.889Z,89.57
2023-05-05T22:43:24.821Z,65.80
2023-05-05T22:45:51.717Z,78.78
2023-05-05T22:48:18.560Z,72.50
2023-05-05T22:50:45.831Z,84.15
2023-05-05T22:53:12.609Z,67.07
2023-05-05T22:55:39.382Z,62.58
2023-05-05T22:58:06.382Z,93.72
2023-05-05T23:00:33.153Z,99.45
2023-05-05T23:03:00.362Z,78.07
2023-05-05T23:05:27.283Z,99.22
2023-05-05T23:07:54.079Z,58.33
2023-05-05T23:10:20.892Z,44.65
2023-05-05T23:12:47.930Z,85.22
2023-05-05T23:15:14.705Z,82.60
2023-05-05T23:17:41.571Z,47.50
2023-05-05T23:20:11.902Z,59.95
2023-05-05T23:22:38.841Z,46.17
2023-05-05T23:25:05.883Z,96.85
2023-05-05T23:27:32.743Z,86.05
2023-05-05T23:29:59.580Z,89.68
2023-05-05T23:32:45.133Z,73.10
2023-05-05T23:35:12.157Z,52.05
2023-05-05T23:37:39.049Z,60.40
2023-05-05T23:40:24.220Z,51.47
2023-05-05T23:42:51.047Z,66.50
2023-05-05T23:45:19.351Z,57.53
2023-05-05T23:47:46.488Z,45.45
2023-05-05T23:50:13.244Z,46.38
2023-05-05T23:52:40.063Z,53.22
2023-05-05T23:55:07.697Z,79.53
2023-05-05T23:57:35.668Z,51.72
